createdAt,value
2018-07-10T00:07:13.285Z,25.50
2018-07-10T00:12:16.758Z,25.48
2018-07-10T00:17:20.625Z,25.49
2018-07-10T00:22:24.097Z,25.49
2018-07-10T00:27:27.556Z,25.49
2018-07-10T00:32:31.077Z,25.47
2018-07-10T00:37:34.883Z,25.47
2018-07-10T00:42:38.689Z,25.46
2018-07-10T00:47:42.121Z,25.43
2018-07-10T00:52:45.637Z,25.43
2018-07-10T00:57:49.359Z,25.41
2018-07-10T01:02:52.821Z,25.42
2018-07-10T01:07:57.405Z,25.40
2018-07-10T01:13:01.041Z,25.40
2018-07-10T01:18:04.584Z,25.39
2018-07-10T01:23:08.074Z,25.40
2018-07-10T01:28:11.574Z,25.37
2018-07-10T01:33:15.192Z,25.35
2018-07-10T01:38:20.365Z,25.37
2018-07-10T01:43:24.066Z,25.35
2018-07-10T01:48:27.786Z,25.33
2018-07-10T01:53:31.282Z,25.34
2018-07-10T01:58:35.111Z,25.33
2018-07-10T02:03:38.537Z,25.33
2018-07-10T02:08:42.069Z,25.31
2018-07-10T02:13:45.598Z,25.31
2018-07-10T02:18:49.461Z,25.29
2018-07-10T02:23:53.940Z,25.30
2018-07-10T02:28:58.281Z,25.27
2018-07-10T02:34:02.250Z,25.28
2018-07-10T02:39:05.989Z,25.28
2018-07-10T02:44:09.434Z,25.28
2018-07-10T02:49:20.021Z,25.25
2018-07-10T02:54:26.266Z,25.23
2018-07-10T02:59:36.873Z,25.22
2018-07-10T03:04:41.878Z,25.23
2018-07-10T03:09:46.578Z,25.22
2018-07-10T03:14:50.006Z,25.21
2018-07-10T03:19:53.637Z,25.21
2018-07-10T03:24:57.615Z,25.18
2018-07-10T03:30:02.361Z,25.18
2018-07-10T03:35:05.909Z,25.16
2018-07-10T03:40:09.532Z,25.14
2018-07-10T03:45:13.384Z,25.14
2018-07-10T03:50:16.906Z,25.13
2018-07-10T03:55:20.385Z,25.10
2018-07-10T04:00:23.954Z,25.11
2018-07-10T04:05:27.961Z,25.11
2018-07-10T04:10:36.724Z,25.09
2018-07-10T04:15:41.141Z,25.08
2018-07-10T04:21:28.845Z,25.04
2018-07-10T04:26:35.199Z,25.06
2018-07-10T04:31:56.963Z,25.02
2018-07-10T04:37:06.177Z,24.99
2018-07-10T04:44:17.322Z,24.98
2018-07-10T04:49:30.152Z,24.95
2018-07-10T04:54:40.845Z,24.95
2018-07-10T04:59:44.741Z,24.92
2018-07-10T05:04:48.214Z,24.92
2018-07-10T05:09:51.726Z,24.90
2018-07-10T05:14:56.681Z,24.89
2018-07-10T05:20:00.426Z,24.88
2018-07-10T05:25:03.892Z,24.85
2018-07-10T05:30:07.369Z,24.84
2018-07-10T05:35:10.857Z,24.84
2018-07-10T05:40:14.428Z,24.83
2018-07-10T05:45:22.589Z,24.81
2018-07-10T05:50:29.374Z,24.80
2018-07-10T05:55:33.212Z,24.79
2018-07-10T06:00:36.708Z,24.76
2018-07-10T06:05:40.732Z,24.78
2018-07-10T06:10:44.201Z,24.76
2018-07-10T06:15:47.810Z,24.74
2018-07-10T06:20:51.326Z,24.74
2018-07-10T06:25:54.778Z,24.73
2018-07-10T06:31:04.070Z,24.71
2018-07-10T06:36:24.606Z,24.70
2018-07-10T06:41:28.070Z,24.71
2018-07-10T06:46:39.849Z,24.68
2018-07-10T06:51:43.337Z,24.67
2018-07-10T06:56:48.574Z,24.69
2018-07-10T07:01:52.112Z,24.68
2018-07-10T07:06:55.673Z,24.60
2018-07-10T07:11:59.085Z,24.03
2018-07-10T07:17:02.570Z,23.81
2018-07-10T07:22:06.260Z,23.80
2018-07-10T07:27:09.671Z,23.79
2018-07-10T07:32:13.400Z,23.80
2018-07-10T07:37:16.828Z,23.92
2018-07-10T07:42:20.274Z,24.05
2018-07-10T07:47:26.900Z,23.94
2018-07-10T07:52:31.778Z,23.97
2018-07-10T07:57:35.230Z,23.97
2018-07-10T08:02:38.674Z,23.85
2018-07-10T08:07:42.296Z,23.87
2018-07-10T08:12:45.933Z,23.87
2018-07-10T08:17:49.405Z,23.89
2018-07-10T08:22:52.933Z,23.87
2018-07-10T08:27:56.488Z,23.76
2018-07-10T08:32:59.996Z,23.80
2018-07-10T08:38:03.421Z,23.65
2018-07-10T08:43:06.944Z,23.84
2018-07-10T08:48:10.381Z,23.93
2018-07-10T08:53:13.834Z,23.91
2018-07-10T08:58:17.284Z,23.93
2018-07-10T09:03:20.737Z,23.91
2018-07-10T09:08:24.226Z,23.89
2018-07-10T09:13:27.750Z,23.95
2018-07-10T09:18:32.086Z,23.97
2018-07-10T09:23:36.348Z,23.93
2018-07-10T09:28:39.855Z,24.05
2018-07-10T09:33:43.542Z,24.00
2018-07-10T09:38:47.226Z,23.92
2018-07-10T09:43:51.640Z,23.81
2018-07-10T09:48:55.261Z,23.56
2018-07-10T09:53:58.886Z,23.48
2018-07-10T09:59:02.341Z,23.47
2018-07-10T10:04:05.910Z,23.36
2018-07-10T10:09:09.401Z,23.40
2018-07-10T10:14:13.164Z,23.29
2018-07-10T10:19:16.576Z,23.25
2018-07-10T10:24:20.020Z,23.21
2018-07-10T10:29:23.717Z,23.20
2018-07-10T10:34:27.421Z,23.08
2018-07-10T10:39:30.888Z,23.12
2018-07-10T10:44:34.446Z,23.11
2018-07-10T10:49:38.171Z,23.01
2018-07-10T10:54:41.658Z,23.06
2018-07-10T10:59:45.791Z,23.02
2018-07-10T11:04:51.010Z,22.90
2018-07-10T11:09:54.483Z,22.89
2018-07-10T11:14:58.287Z,22.93
2018-07-10T11:20:13.769Z,22.81
2018-07-10T11:25:17.286Z,22.85
2018-07-10T11:30:20.951Z,22.87
2018-07-10T11:35:24.882Z,22.85
2018-07-10T11:40:28.565Z,22.91
2018-07-10T11:45:32.236Z,22.82
2018-07-10T11:50:35.686Z,22.84
2018-07-10T11:55:39.207Z,22.74
2018-07-10T12:00:42.671Z,22.78
2018-07-10T12:05:46.254Z,22.76
2018-07-10T12:10:59.679Z,22.74
2018-07-10T12:16:03.134Z,22.74
2018-07-10T12:21:07.303Z,22.76
2018-07-10T12:26:10.839Z,22.76
2018-07-10T12:31:14.535Z,22.64
2018-07-10T12:36:18.049Z,22.59
2018-07-10T12:41:21.510Z,22.39
2018-07-10T12:46:25.015Z,22.40
2018-07-10T12:51:28.490Z,22.54
2018-07-10T12:56:32.054Z,22.64
2018-07-10T13:01:35.676Z,22.78
2018-07-10T13:06:39.154Z,22.78
2018-07-10T13:11:42.602Z,22.89
2018-07-10T13:16:46.034Z,22.86
2018-07-10T13:21:49.540Z,22.99
2018-07-10T13:26:53.240Z,22.94
2018-07-10T13:31:56.777Z,22.93
2018-07-10T13:37:00.290Z,23.10
2018-07-10T13:42:04.368Z,23.28
2018-07-10T13:47:08.014Z,23.50
2018-07-10T13:52:11.975Z,23.62
2018-07-10T13:57:15.785Z,23.71
2018-07-10T14:02:19.589Z,23.80
2018-07-10T14:07:23.204Z,23.88
2018-07-10T14:12:27.255Z,23.98
2018-07-10T14:17:30.695Z,24.06
2018-07-10T14:22:34.315Z,24.14
2018-07-10T14:27:38.076Z,24.22
2018-07-10T14:32:41.722Z,24.28
2018-07-10T14:37:45.421Z,24.23
2018-07-10T14:42:50.851Z,24.21
2018-07-10T14:47:55.129Z,24.19
2018-07-10T14:52:58.650Z,24.22
2018-07-10T14:58:02.575Z,24.24
2018-07-10T15:03:06.075Z,24.19
2018-07-10T15:08:09.911Z,24.17
2018-07-10T15:13:13.382Z,24.09
2018-07-10T15:18:22.047Z,24.12
2018-07-10T15:23:25.664Z,24.05
2018-07-10T15:28:29.017Z,24.04
2018-07-10T15:33:32.582Z,24.14
2018-07-10T15:38:36.286Z,24.17
2018-07-10T15:43:40.150Z,24.20
2018-07-10T15:48:43.970Z,24.24
2018-07-10T15:53:47.475Z,24.24
2018-07-10T15:58:51.004Z,24.23
2018-07-10T16:03:55.327Z,24.25
2018-07-10T16:09:06.926Z,24.26
2018-07-10T16:14:11.674Z,24.30
2018-07-10T16:19:18.228Z,24.25
2018-07-10T16:24:22.565Z,24.25
2018-07-10T16:29:26.441Z,24.25
2018-07-10T16:34:30.393Z,24.25
2018-07-10T16:39:33.980Z,24.28
2018-07-10T16:44:38.551Z,24.30
2018-07-10T16:49:45.411Z,24.30
2018-07-10T16:54:49.227Z,24.30
2018-07-10T16:59:52.921Z,24.32
2018-07-10T17:04:56.439Z,24.34
2018-07-10T17:09:59.989Z,24.32
2018-07-10T17:15:03.668Z,24.34
2018-07-10T17:20:11.362Z,24.34
2018-07-10T17:25:15.751Z,24.36
2018-07-10T17:30:19.233Z,24.38
2018-07-10T17:35:22.668Z,24.52
2018-07-10T17:40:26.401Z,24.61
2018-07-10T17:45:29.869Z,24.63
2018-07-10T17:50:33.627Z,24.77
2018-07-10T17:55:37.358Z,24.83
2018-07-10T18:00:40.958Z,24.86
2018-07-10T18:05:44.528Z,24.93
2018-07-10T18:10:47.953Z,24.87
2018-07-10T18:15:51.409Z,24.67
2018-07-10T18:20:55.016Z,24.69
2018-07-10T18:25:58.476Z,24.65
2018-07-10T18:31:02.160Z,24.61
2018-07-10T18:36:05.637Z,24.60
2018-07-10T18:41:09.057Z,24.58
2018-07-10T18:46:12.690Z,24.51
2018-07-10T18:51:16.461Z,24.46
2018-07-10T18:56:20.409Z,24.47
2018-07-10T19:01:32.690Z,24.48
2018-07-10T19:06:36.633Z,24.48
2018-07-10T19:11:40.855Z,24.46
2018-07-10T19:16:44.639Z,24.47
2018-07-10T19:21:55.446Z,24.47
2018-07-10T19:26:59.894Z,24.43
2018-07-10T19:32:03.608Z,24.40
2018-07-10T19:37:07.462Z,24.42
2018-07-10T19:42:11.133Z,24.35
2018-07-10T19:47:14.854Z,24.34
2018-07-10T19:52:18.891Z,24.36
2018-07-10T19:57:28.537Z,24.33
2018-07-10T20:02:32.420Z,24.28
2018-07-10T20:07:47.516Z,24.32
2018-07-10T20:13:11.546Z,24.33
2018-07-10T20:20:26.033Z,24.31
2018-07-10T20:25:52.179Z,24.27
2018-07-10T20:31:03.566Z,24.27
2018-07-10T20:36:07.536Z,24.25
2018-07-10T20:41:12.466Z,24.19
2018-07-10T20:46:16.910Z,24.16
2018-07-10T20:51:20.713Z,24.18
2018-07-10T20:56:32.754Z,24.16
2018-07-10T21:01:37.789Z,24.17
2018-07-10T21:07:04.223Z,24.14
2018-07-10T21:12:14.474Z,24.13
2018-07-10T21:17:18.869Z,24.10
2018-07-10T21:24:36.726Z,24.10
2018-07-10T21:29:51.574Z,24.08
2018-07-10T21:34:55.242Z,24.07
2018-07-10T21:41:17.301Z,24.05
2018-07-10T21:46:59.883Z,24.02
2018-07-10T21:52:03.334Z,23.99
2018-07-10T21:57:06.897Z,23.98
2018-07-10T22:02:10.568Z,23.97
2018-07-10T22:07:15.590Z,23.95
2018-07-10T22:12:20.743Z,23.93
2018-07-10T22:17:27.334Z,23.89
2018-07-10T22:22:33.036Z,23.91
2018-07-10T22:27:40.401Z,23.87
2018-07-10T22:32:49.434Z,23.85
2018-07-10T22:37:53.448Z,23.83
2018-07-10T22:42:57.174Z,23.83
2018-07-10T22:48:00.890Z,23.82
2018-07-10T22:53:04.367Z,23.80
2018-07-10T22:58:08.558Z,23.79
2018-07-10T23:03:21.684Z,23.77
2018-07-10T23:08:33.841Z,23.76
2018-07-10T23:13:39.112Z,23.75
2018-07-10T23:18:44.078Z,23.74
2018-07-10T23:23:48.573Z,23.71
2018-07-10T23:28:53.827Z,23.71
2018-07-10T23:34:01.994Z,23.68
2018-07-10T23:39:10.857Z,23.68
2018-07-10T23:44:14.370Z,23.65
2018-07-10T23:49:18.410Z,23.66
2018-07-10T23:54:21.938Z,23.64
2018-07-10T23:59:25.543Z,23.64
